La Guardia Airport
KLGA : now visible

Airfield :











YOU CAN JOIN US ON...

 
LOGIN :

Register | Disclaimer

   EN    FR    IT 

 









Legend :    VFR   Marginal VFR   IFR   Intensive IFR   Very Intensive IFR
Visi :
Ceiling :
>= 8 km
>= 3000ft
5 to 8 km
1000 to 3000 ft
1500m to 5 km
500 to 1000 ft
800 to 1500m
200 to 500 ft
< 800m
< 200 ft
Symbols :   Thunderstorms  Fog  Heavy snow  Heavy precipitations  Wind > 20 kt







- Airport Elevation : 21 ft
- IATA code : LGA


KLGA - La Guardia

CURRENT METAR :
  • 260751Z 22007KT 10SM BKN021 OVC030 18/13 A2994 RMK AO2 SLP137 T01780128 $

EXPIRED METARs :
  • 260704Z 20007KT 10SM SCT017 OVC033 17/12 A2996 RMK AO2 T01720122 $
  • 260651Z 20007KT 10SM BKN017 OVC035 17/12 A2996 RMK AO2 RAB0555E04 SLP145 P0000 T01720122 $
  • 260551Z 21007KT 10SM BKN022 17/12 A3000 RMK AO2 RAB22E34 SLP158 P0000 60000 T01720117 10172 20161 58028 $
  • 260451Z 18008KT 10SM BKN023 OVC044 17/12 A3002 RMK AO2 SLP166 T01670117 402110139 $

TAF KLGA
Valid from the 26 at 08:00 until the 27 at 12:00 UTC


260737Z 2608/2712 21008KT P6SM SCT007 BKN015 OVC040
FM261300 28008KT P6SM SCT015 SCT050
FM261600 28012G19KT P6SM FEW050 SCT250
FM262300 31011G18KT P6SM SCT060 BKN200
FM270200 34009KT P6SM SCT060 BKN150
FM270700 36007KT P6SM SCT060 BKN150
KZNY FIR / North America



MET'MAP, your aeronautical weather chart ! - Copyright ORBIFLY December 2007 - Disclaimer

ORBIFLY MET'MAP TEAM :

Programming & Development : Alexandra Zaïnal
Concept & Development : Baudouin d'Aumeries
Co-Development & Prog : Marc-Olivier Méhu
Technical & hardware support : Manuel Goepfert

Contact : metmap@orbifly.com




SOURCES & CREDITS :

   NOAA       Earth
Advisory